Terminal Aerodrome Forecast
Issued by NWS Cleveland, OH

Home | Current Version | Previous Version | Text Only | Print | Product List | Glossary On
Versions: 1 2 3 4 5 6 7 8 9 10 11 12 13 14 15 16
639
FTUS41 KCLE 230833 AAA
TAFYNG
TAF AMD
KYNG 230833Z 2309/2406 12009KT 2SM BR OVC003
     FM231200 15009KT 3SM -RA BR OVC006
     FM232100 23006KT 3SM -RA BR OVC006
     FM240100 27006KT P6SM OVC006=

USA.gov is the U.S. government's official web portal to all federal, state and local government web resources and services.